sensor_id;sensor_type;location;lat;lon;timestamp;pressure;altitude;pressure_sealevel;temperature;humidity
56912;BME280;42800;53.928;27.662;2024-03-02T00:00:26;100103.34;;;2.57;100.00
56912;BME280;42800;53.928;27.662;2024-03-02T00:02:52;100089.47;;;2.64;100.00
56912;BME280;42800;53.928;27.662;2024-03-02T00:05:20;100083.19;;;2.68;100.00
56912;BME280;42800;53.928;27.662;2024-03-02T00:07:53;100072.53;;;2.53;100.00
56912;BME280;42800;53.928;27.662;2024-03-02T00:10:20;100070.13;;;2.94;100.00
56912;BME280;42800;53.928;27.662;2024-03-02T00:12:48;100080.56;;;2.82;100.00
56912;BME280;42800;53.928;27.662;2024-03-02T00:15:35;100077.53;;;2.65;100.00
56912;BME280;42800;53.928;27.662;2024-03-02T00:18:05;100076.59;;;2.74;100.00
56912;BME280;42800;53.928;27.662;2024-03-02T00:20:32;100088.75;;;2.53;100.00
56912;BME280;42800;53.928;27.662;2024-03-02T00:23:03;100080.13;;;2.51;100.00
56912;BME280;42800;53.928;27.662;2024-03-02T00:25:36;100079.19;;;2.36;100.00
56912;BME280;42800;53.928;27.662;2024-03-02T00:28:02;100059.28;;;2.51;100.00
56912;BME280;42800;53.928;27.662;2024-03-02T00:30:51;100057.69;;;2.50;100.00
56912;BME280;42800;53.928;27.662;2024-03-02T00:33:17;100058.03;;;2.44;100.00
56912;BME280;42800;53.928;27.662;2024-03-02T00:35:45;100047.75;;;2.65;100.00
56912;BME280;42800;53.928;27.662;2024-03-02T00:38:12;100060.50;;;2.64;100.00
56912;BME280;42800;53.928;27.662;2024-03-02T00:40:38;100069.88;;;2.48;100.00
56912;BME280;42800;53.928;27.662;2024-03-02T00:43:04;100068.97;;;2.33;100.00
56912;BME280;42800;53.928;27.662;2024-03-02T00:45:30;100043.44;;;2.40;100.00
56912;BME280;42800;53.928;27.662;2024-03-02T00:47:56;100040.13;;;2.48;100.00
56912;BME280;42800;53.928;27.662;2024-03-02T00:50:22;100037.09;;;2.30;100.00
56912;BME280;42800;53.928;27.662;2024-03-02T00:52:49;100021.66;;;2.31;100.00
56912;BME280;42800;53.928;27.662;2024-03-02T00:55:15;100017.50;;;2.15;100.00
56912;BME280;42800;53.928;27.662;2024-03-02T00:57:41;100010.41;;;2.43;100.00
56912;BME280;42800;53.928;27.662;2024-03-02T01:00:10;100006.09;;;2.18;100.00
56912;BME280;42800;53.928;27.662;2024-03-02T01:02:40;100004.41;;;2.46;100.00
56912;BME280;42800;53.928;27.662;2024-03-02T01:05:07;100021.88;;;2.10;100.00
56912;BME280;42800;53.928;27.662;2024-03-02T01:07:33;100009.47;;;2.52;100.00
56912;BME280;42800;53.928;27.662;2024-03-02T01:10:00;100018.69;;;2.51;100.00
56912;BME280;42800;53.928;27.662;2024-03-02T01:12:26;100039.72;;;2.78;100.00
56912;BME280;42800;53.928;27.662;2024-03-02T01:14:52;100067.69;;;2.74;100.00
56912;BME280;42800;53.928;27.662;2024-03-02T01:17:18;100080.41;;;2.49;100.00
56912;BME280;42800;53.928;27.662;2024-03-02T01:19:44;100088.53;;;2.73;100.00
56912;BME280;42800;53.928;27.662;2024-03-02T01:22:10;100112.06;;;3.16;100.00
56912;BME280;42800;53.928;27.662;2024-03-02T01:24:36;100128.69;;;3.09;100.00
56912;BME280;42800;53.928;27.662;2024-03-02T01:27:02;100153.19;;;2.27;100.00
56912;BME280;42800;53.928;27.662;2024-03-02T01:29:28;100117.34;;;2.64;100.00
56912;BME280;42800;53.928;27.662;2024-03-02T01:31:54;100126.78;;;2.67;100.00
56912;BME280;42800;53.928;27.662;2024-03-02T01:34:20;100127.94;;;2.85;100.00
56912;BME280;42800;53.928;27.662;2024-03-02T01:36:46;100129.31;;;2.82;100.00
56912;BME280;42800;53.928;27.662;2024-03-02T01:39:12;100126.31;;;2.83;100.00
56912;BME280;42800;53.928;27.662;2024-03-02T01:41:38;100136.91;;;3.04;100.00
56912;BME280;42800;53.928;27.662;2024-03-02T01:44:04;100141.38;;;2.90;100.00
56912;BME280;42800;53.928;27.662;2024-03-02T01:46:30;100143.84;;;2.67;100.00
56912;BME280;42800;53.928;27.662;2024-03-02T01:48:56;100135.91;;;2.95;100.00
56912;BME280;42800;53.928;27.662;2024-03-02T01:51:22;100136.56;;;2.39;100.00
56912;BME280;42800;53.928;27.662;2024-03-02T01:53:48;100121.69;;;2.36;100.00
56912;BME280;42800;53.928;27.662;2024-03-02T01:56:14;100115.22;;;2.61;100.00
56912;BME280;42800;53.928;27.662;2024-03-02T01:58:40;100128.28;;;2.54;100.00
56912;BME280;42800;53.928;27.662;2024-03-02T02:01:06;100122.16;;;2.43;100.00
56912;BME280;42800;53.928;27.662;2024-03-02T02:03:32;100107.53;;;2.20;100.00
56912;BME280;42800;53.928;27.662;2024-03-02T02:05:58;100100.03;;;2.12;100.00
56912;BME280;42800;53.928;27.662;2024-03-02T02:08:24;100087.53;;;2.16;100.00
56912;BME280;42800;53.928;27.662;2024-03-02T02:10:50;100059.41;;;2.17;100.00
56912;BME280;42800;53.928;27.662;2024-03-02T02:13:16;100054.22;;;2.21;100.00
56912;BME280;42800;53.928;27.662;2024-03-02T02:15:42;100055.72;;;2.32;100.00
56912;BME280;42800;53.928;27.662;2024-03-02T02:18:09;100056.28;;;2.05;100.00
56912;BME280;42800;53.928;27.662;2024-03-02T02:20:35;100029.53;;;2.27;100.00
56912;BME280;42800;53.928;27.662;2024-03-02T02:23:02;100033.72;;;2.39;100.00
56912;BME280;42800;53.928;27.662;2024-03-02T02:25:29;100026.31;;;2.25;100.00
56912;BME280;42800;53.928;27.662;2024-03-02T02:27:55;100024.75;;;1.95;100.00
56912;BME280;42800;53.928;27.662;2024-03-02T02:30:23;100013.34;;;1.98;100.00
56912;BME280;42800;53.928;27.662;2024-03-02T02:32:49;100004.47;;;1.93;100.00
56912;BME280;42800;53.928;27.662;2024-03-02T02:35:16;100001.38;;;2.04;100.00
56912;BME280;42800;53.928;27.662;2024-03-02T02:37:42;99982.13;;;1.87;100.00
56912;BME280;42800;53.928;27.662;2024-03-02T02:40:10;99971.69;;;1.99;100.00
56912;BME280;42800;53.928;27.662;2024-03-02T02:42:36;99975.91;;;2.29;100.00
56912;BME280;42800;53.928;27.662;2024-03-02T02:45:02;99995.75;;;2.01;100.00
56912;BME280;42800;53.928;27.662;2024-03-02T02:47:29;99980.31;;;1.77;100.00
56912;BME280;42800;53.928;27.662;2024-03-02T02:49:55;99953.97;;;2.12;100.00
56912;BME280;42800;53.928;27.662;2024-03-02T02:52:20;99980.25;;;2.06;100.00
56912;BME280;42800;53.928;27.662;2024-03-02T02:54:46;99993.44;;;2.13;100.00
56912;BME280;42800;53.928;27.662;2024-03-02T02:57:13;99999.53;;;2.00;100.00
56912;BME280;42800;53.928;27.662;2024-03-02T02:59:39;100005.63;;;1.86;100.00
56912;BME280;42800;53.928;27.662;2024-03-02T03:02:05;100007.03;;;2.08;100.00
56912;BME280;42800;53.928;27.662;2024-03-02T03:04:31;100001.63;;;2.08;100.00
56912;BME280;42800;53.928;27.662;2024-03-02T03:06:57;100009.66;;;2.13;100.00
56912;BME280;42800;53.928;27.662;2024-03-02T03:09:23;100021.28;;;2.38;100.00
56912;BME280;42800;53.928;27.662;2024-03-02T03:11:49;100043.06;;;2.03;100.00
56912;BME280;42800;53.928;27.662;2024-03-02T03:14:16;100048.47;;;2.03;100.00
56912;BME280;42800;53.928;27.662;2024-03-02T03:16:42;100046.03;;;2.02;100.00
56912;BME280;42800;53.928;27.662;2024-03-02T03:19:08;100055.31;;;2.20;100.00
56912;BME280;42800;53.928;27.662;2024-03-02T03:21:34;100062.06;;;2.22;100.00
56912;BME280;42800;53.928;27.662;2024-03-02T03:24:00;100062.13;;;2.17;100.00
56912;BME280;42800;53.928;27.662;2024-03-02T03:26:26;100073.47;;;1.90;100.00
56912;BME280;42800;53.928;27.662;2024-03-02T03:28:51;100063.03;;;1.78;100.00
56912;BME280;42800;53.928;27.662;2024-03-02T03:31:18;100055.25;;;2.01;100.00
56912;BME280;42800;53.928;27.662;2024-03-02T03:33:44;100058.28;;;1.94;100.00
56912;BME280;42800;53.928;27.662;2024-03-02T03:36:10;100063.13;;;1.97;100.00
56912;BME280;42800;53.928;27.662;2024-03-02T03:38:36;100058.03;;;1.61;100.00
56912;BME280;42800;53.928;27.662;2024-03-02T03:41:02;100036.00;;;1.78;100.00
56912;BME280;42800;53.928;27.662;2024-03-02T03:43:28;100041.88;;;1.85;100.00
56912;BME280;42800;53.928;27.662;2024-03-02T03:45:54;100063.06;;;1.73;100.00
56912;BME280;42800;53.928;27.662;2024-03-02T03:48:21;100058.56;;;1.63;100.00
56912;BME280;42800;53.928;27.662;2024-03-02T03:50:47;100062.69;;;1.85;100.00
56912;BME280;42800;53.928;27.662;2024-03-02T03:53:13;100060.78;;;1.56;100.00
56912;BME280;42800;53.928;27.662;2024-03-02T03:55:40;100032.69;;;1.57;100.00
56912;BME280;42800;53.928;27.662;2024-03-02T03:58:06;100042.97;;;1.16;100.00
56912;BME280;42800;53.928;27.662;2024-03-02T04:00:32;100009.72;;;1.55;100.00
56912;BME280;42800;53.928;27.662;2024-03-02T04:02:57;100005.63;;;1.28;100.00
56912;BME280;42800;53.928;27.662;2024-03-02T04:05:24;100002.19;;;1.52;100.00
56912;BME280;42800;53.928;27.662;2024-03-02T04:07:50;100000.69;;;1.35;100.00
56912;BME280;42800;53.928;27.662;2024-03-02T04:10:16;99997.41;;;1.44;100.00
56912;BME280;42800;53.928;27.662;2024-03-02T04:12:42;100003.28;;;1.51;100.00
56912;BME280;42800;53.928;27.662;2024-03-02T04:15:09;100004.09;;;1.51;100.00
56912;BME280;42800;53.928;27.662;2024-03-02T04:17:35;100002.78;;;1.73;100.00
56912;BME280;42800;53.928;27.662;2024-03-02T04:20:02;100015.41;;;1.82;100.00
56912;BME280;42800;53.928;27.662;2024-03-02T04:22:33;100015.38;;;1.58;100.00
56912;BME280;42800;53.928;27.662;2024-03-02T04:24:59;100035.41;;;1.52;100.00
56912;BME280;42800;53.928;27.662;2024-03-02T04:27:25;100033.94;;;1.70;100.00
56912;BME280;42800;53.928;27.662;2024-03-02T04:29:51;100045.44;;;1.81;100.00
56912;BME280;42800;53.928;27.662;2024-03-02T04:32:17;100054.00;;;1.59;100.00
56912;BME280;42800;53.928;27.662;2024-03-02T04:34:45;100059.28;;;1.74;100.00
56912;BME280;42800;53.928;27.662;2024-03-02T04:37:11;100079.09;;;1.64;100.00
56912;BME280;42800;53.928;27.662;2024-03-02T04:39:38;100069.34;;;1.69;100.00
56912;BME280;42800;53.928;27.662;2024-03-02T04:42:04;100072.69;;;1.55;100.00
56912;BME280;42800;53.928;27.662;2024-03-02T04:44:30;100072.38;;;1.23;100.00
56912;BME280;42800;53.928;27.662;2024-03-02T04:46:56;100059.91;;;1.32;100.00
56912;BME280;42800;53.928;27.662;2024-03-02T04:49:23;100059.66;;;1.28;100.00
56912;BME280;42800;53.928;27.662;2024-03-02T04:51:49;100061.34;;;1.53;100.00
56912;BME280;42800;53.928;27.662;2024-03-02T04:54:15;100058.44;;;1.45;100.00
56912;BME280;42800;53.928;27.662;2024-03-02T04:56:41;100054.06;;;1.54;100.00
56912;BME280;42800;53.928;27.662;2024-03-02T04:59:10;100068.16;;;1.46;100.00
56912;BME280;42800;53.928;27.662;2024-03-02T05:01:36;100067.03;;;1.12;100.00
56912;BME280;42800;53.928;27.662;2024-03-02T05:04:02;100062.81;;;0.96;100.00
56912;BME280;42800;53.928;27.662;2024-03-02T05:06:28;100041.91;;;1.17;100.00
56912;BME280;42800;53.928;27.662;2024-03-02T05:08:54;100047.31;;;1.17;100.00
56912;BME280;42800;53.928;27.662;2024-03-02T05:11:19;100046.81;;;1.10;100.00
56912;BME280;42800;53.928;27.662;2024-03-02T05:14:12;100043.47;;;0.84;100.00
56912;BME280;42800;53.928;27.662;2024-03-02T05:16:37;100019.66;;;0.91;100.00
56912;BME280;42800;53.928;27.662;2024-03-02T05:19:04;100006.47;;;1.24;100.00
56912;BME280;42800;53.928;27.662;2024-03-02T05:21:31;100028.16;;;1.13;100.00
56912;BME280;42800;53.928;27.662;2024-03-02T05:23:57;100037.22;;;0.93;100.00
56912;BME280;42800;53.928;27.662;2024-03-02T05:26:23;100014.38;;;1.10;100.00
56912;BME280;42800;53.928;27.662;2024-03-02T05:28:49;100015.34;;;1.29;100.00
56912;BME280;42800;53.928;27.662;2024-03-02T05:31:16;100029.84;;;1.38;100.00
56912;BME280;42800;53.928;27.662;2024-03-02T05:33:42;100046.75;;;1.20;100.00
56912;BME280;42800;53.928;27.662;2024-03-02T05:36:08;100040.13;;;1.36;100.00
56912;BME280;42800;53.928;27.662;2024-03-02T05:38:35;100045.41;;;1.52;100.00
56912;BME280;42800;53.928;27.662;2024-03-02T05:41:01;100072.84;;;1.35;100.00
56912;BME280;42800;53.928;27.662;2024-03-02T05:43:26;100084.91;;;1.08;100.00
56912;BME280;42800;53.928;27.662;2024-03-02T05:45:52;100081.66;;;1.51;100.00
56912;BME280;42800;53.928;27.662;2024-03-02T05:48:19;100098.22;;;1.73;100.00
56912;BME280;42800;53.928;27.662;2024-03-02T05:50:45;100113.91;;;1.71;100.00
56912;BME280;42800;53.928;27.662;2024-03-02T05:53:11;100128.72;;;1.39;100.00
56912;BME280;42800;53.928;27.662;2024-03-02T05:55:37;100115.84;;;1.65;100.00
56912;BME280;42800;53.928;27.662;2024-03-02T05:58:03;100126.84;;;1.40;100.00
56912;BME280;42800;53.928;27.662;2024-03-02T06:00:45;100139.78;;;1.82;100.00
56912;BME280;42800;53.928;27.662;2024-03-02T06:03:11;100149.69;;;1.97;100.00
56912;BME280;42800;53.928;27.662;2024-03-02T06:05:38;100146.66;;;2.04;100.00
56912;BME280;42800;53.928;27.662;2024-03-02T06:08:04;100136.00;;;2.66;100.00
56912;BME280;42800;53.928;27.662;2024-03-02T06:10:30;100114.78;;;2.97;100.00
56912;BME280;42800;53.928;27.662;2024-03-02T06:12:56;99997.47;;;3.48;100.00
56912;BME280;42800;53.928;27.662;2024-03-02T06:15:24;99809.81;;;3.65;100.00
56912;BME280;42800;53.928;27.662;2024-03-02T06:17:50;99599.75;;;3.85;100.00
56912;BME280;42800;53.928;27.662;2024-03-02T06:20:16;99329.47;;;3.80;100.00
56912;BME280;42800;53.928;27.662;2024-03-02T06:22:42;99150.81;;;4.60;100.00
56912;BME280;42800;53.928;27.662;2024-03-02T06:25:08;98906.09;;;4.62;100.00
56912;BME280;42800;53.928;27.662;2024-03-02T06:27:34;98859.56;;;4.51;100.00
56912;BME280;42800;53.928;27.662;2024-03-02T06:30:00;98830.09;;;4.41;100.00
56912;BME280;42800;53.928;27.662;2024-03-02T06:32:26;98833.22;;;4.52;100.00
56912;BME280;42800;53.928;27.662;2024-03-02T06:34:52;98780.13;;;4.75;100.00
56912;BME280;42800;53.928;27.662;2024-03-02T06:37:18;98757.22;;;5.22;100.00
56912;BME280;42800;53.928;27.662;2024-03-02T06:39:45;98762.28;;;5.84;100.00
56912;BME280;42800;53.928;27.662;2024-03-02T06:42:10;98799.94;;;6.35;100.00
56912;BME280;42800;53.928;27.662;2024-03-02T06:44:36;98870.75;;;6.23;100.00
56912;BME280;42800;53.928;27.662;2024-03-02T06:47:02;98883.13;;;5.96;100.00
56912;BME280;42800;53.928;27.662;2024-03-02T06:49:29;98866.53;;;5.76;100.00
56912;BME280;42800;53.928;27.662;2024-03-02T06:51:55;98903.19;;;5.91;100.00
56912;BME280;42800;53.928;27.662;2024-03-02T06:54:21;98844.00;;;6.12;100.00
56912;BME280;42800;53.928;27.662;2024-03-02T06:56:47;98955.69;;;7.49;100.00
56912;BME280;42800;53.928;27.662;2024-03-02T06:59:13;99000.47;;;5.94;100.00
56912;BME280;42800;53.928;27.662;2024-03-02T07:01:39;98959.38;;;6.73;100.00
56912;BME280;42800;53.928;27.662;2024-03-02T07:04:05;98993.88;;;6.93;100.00
56912;BME280;42800;53.928;27.662;2024-03-02T07:06:32;99029.53;;;6.88;100.00
56912;BME280;42800;53.928;27.662;2024-03-02T07:08:57;99060.19;;;7.66;100.00
56912;BME280;42800;53.928;27.662;2024-03-02T07:11:23;99072.31;;;7.00;100.00
56912;BME280;42800;53.928;27.662;2024-03-02T07:13:50;99078.69;;;6.79;100.00
56912;BME280;42800;53.928;27.662;2024-03-02T07:16:16;99101.59;;;7.55;100.00
56912;BME280;42800;53.928;27.662;2024-03-02T07:18:53;99101.91;;;7.66;100.00
56912;BME280;42800;53.928;27.662;2024-03-02T07:21:20;99127.41;;;7.58;100.00
56912;BME280;42800;53.928;27.662;2024-03-02T07:23:47;99206.00;;;8.21;100.00
56912;BME280;42800;53.928;27.662;2024-03-02T07:26:13;99256.16;;;8.41;100.00
56912;BME280;42800;53.928;27.662;2024-03-02T07:28:42;99262.50;;;8.33;100.00
56912;BME280;42800;53.928;27.662;2024-03-02T07:31:10;99268.84;;;8.09;100.00
56912;BME280;42800;53.928;27.662;2024-03-02T07:33:36;99274.22;;;8.74;100.00
56912;BME280;42800;53.928;27.662;2024-03-02T07:36:03;99222.47;;;8.97;100.00
56912;BME280;42800;53.928;27.662;2024-03-02T07:38:29;99314.34;;;8.85;100.00
56912;BME280;42800;53.928;27.662;2024-03-02T07:40:55;99310.44;;;9.30;100.00
56912;BME280;42800;53.928;27.662;2024-03-02T07:43:21;99312.63;;;8.93;100.00
56912;BME280;42800;53.928;27.662;2024-03-02T07:45:48;99303.25;;;8.50;100.00
56912;BME280;42800;53.928;27.662;2024-03-02T07:48:15;99305.53;;;8.92;100.00
56912;BME280;42800;53.928;27.662;2024-03-02T07:50:41;99340.38;;;8.95;100.00
56912;BME280;42800;53.928;27.662;2024-03-02T07:53:08;99321.84;;;8.88;100.00
56912;BME280;42800;53.928;27.662;2024-03-02T07:55:34;99344.59;;;9.52;100.00
56912;BME280;42800;53.928;27.662;2024-03-02T07:58:01;99370.03;;;9.53;100.00
56912;BME280;42800;53.928;27.662;2024-03-02T08:00:27;99360.03;;;9.76;100.00
56912;BME280;42800;53.928;27.662;2024-03-02T08:02:54;99369.88;;;9.02;100.00
56912;BME280;42800;53.928;27.662;2024-03-02T08:05:20;99324.41;;;8.53;100.00
56912;BME280;42800;53.928;27.662;2024-03-02T08:07:47;99350.50;;;8.79;100.00
56912;BME280;42800;53.928;27.662;2024-03-02T08:10:13;99343.72;;;9.48;100.00
56912;BME280;42800;53.928;27.662;2024-03-02T08:12:39;99360.94;;;10.67;100.00
56912;BME280;42800;53.928;27.662;2024-03-02T08:15:06;99364.28;;;10.25;100.00
56912;BME280;42800;53.928;27.662;2024-03-02T08:17:32;99378.50;;;9.48;100.00
56912;BME280;42800;53.928;27.662;2024-03-02T08:19:58;99372.88;;;9.56;100.00
56912;BME280;42800;53.928;27.662;2024-03-02T08:22:25;99390.41;;;8.95;100.00
56912;BME280;42800;53.928;27.662;2024-03-02T08:24:51;99384.22;;;9.42;100.00
56912;BME280;42800;53.928;27.662;2024-03-02T08:27:17;99380.34;;;9.00;100.00
56912;BME280;42800;53.928;27.662;2024-03-02T08:29:43;99389.00;;;8.74;100.00
56912;BME280;42800;53.928;27.662;2024-03-02T08:32:09;99385.41;;;9.57;100.00
56912;BME280;42800;53.928;27.662;2024-03-02T08:34:35;99393.50;;;9.85;100.00
56912;BME280;42800;53.928;27.662;2024-03-02T08:37:01;99404.69;;;9.33;100.00
56912;BME280;42800;53.928;27.662;2024-03-02T08:39:28;99406.72;;;9.36;100.00
56912;BME280;42800;53.928;27.662;2024-03-02T08:41:54;99393.44;;;9.50;100.00
56912;BME280;42800;53.928;27.662;2024-03-02T08:44:20;99393.03;;;10.31;100.00
56912;BME280;42800;53.928;27.662;2024-03-02T08:46:47;99409.06;;;10.13;100.00
56912;BME280;42800;53.928;27.662;2024-03-02T08:49:13;99412.69;;;9.54;100.00
56912;BME280;42800;53.928;27.662;2024-03-02T08:51:39;99401.28;;;9.99;100.00
56912;BME280;42800;53.928;27.662;2024-03-02T08:54:05;99402.34;;;9.47;100.00
56912;BME280;42800;53.928;27.662;2024-03-02T08:56:31;99421.22;;;10.16;100.00
56912;BME280;42800;53.928;27.662;2024-03-02T08:58:58;99411.94;;;9.41;100.00
56912;BME280;42800;53.928;27.662;2024-03-02T09:01:24;99399.78;;;10.02;100.00
56912;BME280;42800;53.928;27.662;2024-03-02T09:03:49;99398.13;;;9.81;100.00
56912;BME280;42800;53.928;27.662;2024-03-02T09:06:17;99408.91;;;10.76;100.00
56912;BME280;42800;53.928;27.662;2024-03-02T09:08:43;99418.81;;;11.43;100.00
56912;BME280;42800;53.928;27.662;2024-03-02T09:11:09;99418.38;;;11.83;100.00
56912;BME280;42800;53.928;27.662;2024-03-02T09:13:37;99426.09;;;11.54;100.00
56912;BME280;42800;53.928;27.662;2024-03-02T09:16:03;99412.69;;;10.01;100.00
56912;BME280;42800;53.928;27.662;2024-03-02T09:18:30;99399.06;;;9.41;100.00
56912;BME280;42800;53.928;27.662;2024-03-02T09:20:56;99395.25;;;10.99;100.00
56912;BME280;42800;53.928;27.662;2024-03-02T09:23:22;99393.25;;;10.96;100.00
56912;BME280;42800;53.928;27.662;2024-03-02T09:25:48;99399.31;;;10.67;100.00
56912;BME280;42800;53.928;27.662;2024-03-02T09:28:15;99393.59;;;10.05;100.00
56912;BME280;42800;53.928;27.662;2024-03-02T09:30:42;99402.53;;;9.70;100.00
56912;BME280;42800;53.928;27.662;2024-03-02T09:33:08;99397.81;;;10.18;100.00
56912;BME280;42800;53.928;27.662;2024-03-02T09:35:34;99398.41;;;10.43;100.00
56912;BME280;42800;53.928;27.662;2024-03-02T09:38:00;99393.91;;;10.19;100.00
56912;BME280;42800;53.928;27.662;2024-03-02T09:40:26;99396.63;;;10.51;100.00
56912;BME280;42800;53.928;27.662;2024-03-02T09:42:52;99407.97;;;9.38;100.00
56912;BME280;42800;53.928;27.662;2024-03-02T09:45:22;99383.06;;;8.84;100.00
56912;BME280;42800;53.928;27.662;2024-03-02T09:47:49;99380.19;;;9.68;100.00
56912;BME280;42800;53.928;27.662;2024-03-02T09:50:15;99379.78;;;10.52;100.00
56912;BME280;42800;53.928;27.662;2024-03-02T09:52:42;99390.69;;;9.50;100.00
56912;BME280;42800;53.928;27.662;2024-03-02T09:55:08;99373.47;;;9.65;100.00
56912;BME280;42800;53.928;27.662;2024-03-02T09:57:34;99372.88;;;8.97;100.00
56912;BME280;42800;53.928;27.662;2024-03-02T10:00:00;99380.66;;;8.82;100.00
56912;BME280;42800;53.928;27.662;2024-03-02T10:02:26;99376.91;;;10.10;100.00
56912;BME280;42800;53.928;27.662;2024-03-02T10:04:52;99374.88;;;10.07;100.00
56912;BME280;42800;53.928;27.662;2024-03-02T10:07:19;99386.88;;;10.92;100.00
56912;BME280;42800;53.928;27.662;2024-03-02T10:09:46;99390.91;;;10.59;100.00
56912;BME280;42800;53.928;27.662;2024-03-02T10:12:13;99394.19;;;10.14;100.00
56912;BME280;42800;53.928;27.662;2024-03-02T10:14:39;99389.69;;;10.57;100.00
56912;BME280;42800;53.928;27.662;2024-03-02T10:17:06;99384.31;;;9.46;100.00
56912;BME280;42800;53.928;27.662;2024-03-02T10:19:33;99370.03;;;10.35;100.00
56912;BME280;42800;53.928;27.662;2024-03-02T10:22:01;99383.97;;;9.95;100.00
56912;BME280;42800;53.928;27.662;2024-03-02T10:24:35;99376.03;;;10.25;100.00
56912;BME280;42800;53.928;27.662;2024-03-02T10:27:02;99385.69;;;10.19;100.00
56912;BME280;42800;53.928;27.662;2024-03-02T10:29:29;99377.47;;;10.19;100.00
56912;BME280;42800;53.928;27.662;2024-03-02T10:31:55;99378.72;;;10.06;100.00
56912;BME280;42800;53.928;27.662;2024-03-02T10:34:21;99380.72;;;10.41;100.00
56912;BME280;42800;53.928;27.662;2024-03-02T10:36:47;99378.03;;;10.09;100.00
56912;BME280;42800;53.928;27.662;2024-03-02T10:39:14;99367.25;;;9.21;100.00
56912;BME280;42800;53.928;27.662;2024-03-02T10:41:40;99367.19;;;9.33;100.00
56912;BME280;42800;53.928;27.662;2024-03-02T10:44:07;99358.00;;;9.41;100.00
56912;BME280;42800;53.928;27.662;2024-03-02T10:46:34;99367.22;;;10.16;100.00
56912;BME280;42800;53.928;27.662;2024-03-02T10:49:02;99360.19;;;10.50;100.00
56912;BME280;42800;53.928;27.662;2024-03-02T10:51:32;99370.81;;;10.71;100.00
56912;BME280;42800;53.928;27.662;2024-03-02T10:53:59;99364.44;;;10.48;100.00
56912;BME280;42800;53.928;27.662;2024-03-02T10:56:28;99366.19;;;10.05;100.00
56912;BME280;42800;53.928;27.662;2024-03-02T10:59:01;99363.47;;;9.89;100.00
56912;BME280;42800;53.928;27.662;2024-03-02T11:01:29;99344.94;;;9.82;100.00
56912;BME280;42800;53.928;27.662;2024-03-02T11:03:56;99341.22;;;9.90;100.00
56912;BME280;42800;53.928;27.662;2024-03-02T11:06:23;99350.75;;;10.67;100.00
56912;BME280;42800;53.928;27.662;2024-03-02T11:08:53;99367.44;;;11.20;100.00
56912;BME280;42800;53.928;27.662;2024-03-02T11:11:29;99374.16;;;11.46;100.00
56912;BME280;42800;53.928;27.662;2024-03-02T11:13:57;99370.84;;;10.55;100.00
56912;BME280;42800;53.928;27.662;2024-03-02T11:16:32;99370.41;;;10.34;100.00
56912;BME280;42800;53.928;27.662;2024-03-02T11:19:02;99358.75;;;10.05;100.00
56912;BME280;42800;53.928;27.662;2024-03-02T11:21:28;99357.78;;;10.49;100.00
56912;BME280;42800;53.928;27.662;2024-03-02T11:23:54;99364.47;;;9.97;100.00
56912;BME280;42800;53.928;27.662;2024-03-02T11:26:21;99355.97;;;9.86;100.00
56912;BME280;42800;53.928;27.662;2024-03-02T11:28:49;99357.91;;;9.85;100.00
56912;BME280;42800;53.928;27.662;2024-03-02T11:31:15;99355.41;;;9.96;100.00
56912;BME280;42800;53.928;27.662;2024-03-02T11:33:41;99357.38;;;9.32;100.00
56912;BME280;42800;53.928;27.662;2024-03-02T11:36:08;99356.78;;;9.23;100.00
56912;BME280;42800;53.928;27.662;2024-03-02T11:38:35;99355.91;;;9.51;100.00
56912;BME280;42800;53.928;27.662;2024-03-02T11:41:02;99342.47;;;8.86;100.00
56912;BME280;42800;53.928;27.662;2024-03-02T11:43:29;99331.78;;;9.09;100.00
56912;BME280;42800;53.928;27.662;2024-03-02T11:45:59;99335.28;;;9.09;100.00
56912;BME280;42800;53.928;27.662;2024-03-02T11:48:25;99341.13;;;9.08;100.00
56912;BME280;42800;53.928;27.662;2024-03-02T11:50:52;99330.69;;;8.98;100.00
56912;BME280;42800;53.928;27.662;2024-03-02T11:53:19;99324.84;;;8.83;100.00
56912;BME280;42800;53.928;27.662;2024-03-02T11:55:45;99322.53;;;9.13;100.00
56912;BME280;42800;53.928;27.662;2024-03-02T11:58:14;99321.78;;;8.57;100.00
56912;BME280;42800;53.928;27.662;2024-03-02T12:00:40;99324.59;;;8.88;100.00
56912;BME280;42800;53.928;27.662;2024-03-02T12:03:08;99314.84;;;8.75;100.00
56912;BME280;42800;53.928;27.662;2024-03-02T12:05:35;99309.59;;;8.54;100.00
56912;BME280;42800;53.928;27.662;2024-03-02T12:08:03;99309.44;;;8.63;100.00
56912;BME280;42800;53.928;27.662;2024-03-02T12:10:31;99301.44;;;8.70;100.00
56912;BME280;42800;53.928;27.662;2024-03-02T12:12:57;99305.88;;;8.75;100.00
56912;BME280;42800;53.928;27.662;2024-03-02T12:15:25;99288.03;;;8.65;100.00
56912;BME280;42800;53.928;27.662;2024-03-02T12:17:53;99304.22;;;9.02;100.00
56912;BME280;42800;53.928;27.662;2024-03-02T12:20:20;99290.59;;;9.33;100.00
56912;BME280;42800;53.928;27.662;2024-03-02T12:22:46;99297.53;;;9.15;100.00
56912;BME280;42800;53.928;27.662;2024-03-02T12:25:12;99303.06;;;8.87;100.00
56912;BME280;42800;53.928;27.662;2024-03-02T12:27:38;99289.41;;;9.03;100.00
56912;BME280;42800;53.928;27.662;2024-03-02T12:30:05;99286.31;;;8.88;100.00
56912;BME280;42800;53.928;27.662;2024-03-02T12:32:33;99297.19;;;9.01;100.00
56912;BME280;42800;53.928;27.662;2024-03-02T12:35:00;99267.63;;;8.90;100.00
56912;BME280;42800;53.928;27.662;2024-03-02T12:37:26;99271.94;;;8.91;100.00
56912;BME280;42800;53.928;27.662;2024-03-02T12:39:53;99265.22;;;8.73;100.00